sensor_id;sensor_type;location;lat;lon;timestamp;pressure;altitude;pressure_sealevel;temperature;humidity
44531;BME280;30240;47.418;0.700;2023-05-01T00:01:34;100623.34594726562;;;12.76;88.33
44531;BME280;30240;47.418;0.700;2023-05-01T00:03:58;100627.36206054688;;;12.62;88.14
44531;BME280;30240;47.418;0.700;2023-05-01T00:06:24;100618.37768554688;;;12.46;88.33
44531;BME280;30240;47.418;0.700;2023-05-01T00:08:49;100619.06127929688;;;12.68;88.64
44531;BME280;30240;47.418;0.700;2023-05-01T00:11:14;100610.88256835938;;;12.8;88.67
44531;BME280;30240;47.418;0.700;2023-05-01T00:13:38;100610.88256835938;;;12.8;88.67
44531;BME280;30240;47.418;0.700;2023-05-01T00:16:06;100611.40747070312;;;12.68;88.16
44531;BME280;30240;47.418;0.700;2023-05-01T00:18:29;100615.82641601562;;;12.65;88.16
44531;BME280;30240;47.418;0.700;2023-05-01T00:20:53;100617.724609375;;;12.56;88.36
44531;BME280;30240;47.418;0.700;2023-05-01T00:23:18;100617.7490234375;;;12.49;88.28
44531;BME280;30240;47.418;0.700;2023-05-01T00:25:43;100612.65869140625;;;12.33;87.93
44531;BME280;30240;47.418;0.700;2023-05-01T00:28:09;100612.65869140625;;;12.33;87.93
44531;BME280;30240;47.418;0.700;2023-05-01T00:30:34;100608.89282226562;;;12.33;88.37
44531;BME280;30240;47.418;0.700;2023-05-01T00:32:59;100603.67431640625;;;12.28;88.72
44531;BME280;30240;47.418;0.700;2023-05-01T00:35:24;100609.39331054688;;;12.25;88.67
44531;BME280;30240;47.418;0.700;2023-05-01T00:37:49;100606.56127929688;;;12.18;89.22
44531;BME280;30240;47.418;0.700;2023-05-01T00:40:14;100606.56127929688;;;12.18;89.22
44531;BME280;30240;47.418;0.700;2023-05-01T00:42:39;100610.80322265625;;;12.23;89.29
44531;BME280;30240;47.418;0.700;2023-05-01T00:45:04;100610.90698242188;;;12.18;89.44
44531;BME280;30240;47.418;0.700;2023-05-01T00:47:28;100607.2021484375;;;12.13;89.56
44531;BME280;30240;47.418;0.700;2023-05-01T00:49:54;100603.40576171875;;;12.04;89.81
44531;BME280;30240;47.418;0.700;2023-05-01T00:52:19;100603.40576171875;;;12.04;89.81
44531;BME280;30240;47.418;0.700;2023-05-01T00:54:44;100601.0498046875;;;11.99;90.15
44531;BME280;30240;47.418;0.700;2023-05-01T00:57:09;100596.12426757812;;;11.97;90.25
44531;BME280;30240;47.418;0.700;2023-05-01T00:59:33;100595.86181640625;;;11.86;90.45
44531;BME280;30240;47.418;0.700;2023-05-01T01:01:59;100595.25146484375;;;11.96;90.64
44531;BME280;30240;47.418;0.700;2023-05-01T01:04:24;100595.25146484375;;;11.96;90.64
44531;BME280;30240;47.418;0.700;2023-05-01T01:06:53;100591.70532226562;;;11.72;90.78
44531;BME280;30240;47.418;0.700;2023-05-01T01:09:21;100588.92211914062;;;11.92;90.87
44531;BME280;30240;47.418;0.700;2023-05-01T01:11:42;100586.5478515625;;;11.61;90.98
44531;BME280;30240;47.418;0.700;2023-05-01T01:14:09;100588.95874023438;;;11.74;91.29
44531;BME280;30240;47.418;0.700;2023-05-01T01:16:33;100588.95874023438;;;11.74;91.29
44531;BME280;30240;47.418;0.700;2023-05-01T01:16:38;100588.95874023438;;;11.74;91.29
44531;BME280;30240;47.418;0.700;2023-05-01T01:18:57;100583.3251953125;;;11.65;91.19
44531;BME280;30240;47.418;0.700;2023-05-01T01:21:22;100578.49731445312;;;11.71;91.42
44531;BME280;30240;47.418;0.700;2023-05-01T01:24:35;100576.42211914062;;;11.61;91.51
44531;BME280;30240;47.418;0.700;2023-05-01T01:24:46;100576.42211914062;;;11.61;91.51
44531;BME280;30240;47.418;0.700;2023-05-01T01:26:11;100573.79760742188;;;11.64;91.68
44531;BME280;30240;47.418;0.700;2023-05-01T01:28:54;100573.79760742188;;;11.64;91.68
44531;BME280;30240;47.418;0.700;2023-05-01T01:29:15;100573.79760742188;;;11.64;91.68
44531;BME280;30240;47.418;0.700;2023-05-01T01:29:32;100573.79760742188;;;11.64;91.68
44531;BME280;30240;47.418;0.700;2023-05-01T01:31:08;100569.04907226562;;;11.54;91.67
44531;BME280;30240;47.418;0.700;2023-05-01T01:33:58;100575.46997070312;;;11.57;91.86
44531;BME280;30240;47.418;0.700;2023-05-01T01:35:52;100574.40795898438;;;11.58;91.98
44531;BME280;30240;47.418;0.700;2023-05-01T01:38:15;100569.25659179688;;;11.51;91.84
44531;BME280;30240;47.418;0.700;2023-05-01T01:40:44;100569.25659179688;;;11.51;91.84
44531;BME280;30240;47.418;0.700;2023-05-01T01:40:49;100569.25659179688;;;11.51;91.84
44531;BME280;30240;47.418;0.700;2023-05-01T01:43:06;100563.14086914062;;;11.34;92.14
44531;BME280;30240;47.418;0.700;2023-05-01T01:45:33;100562.548828125;;;11.55;92.16
44531;BME280;30240;47.418;0.700;2023-05-01T01:47:54;100559.3505859375;;;11.41;92.13
44531;BME280;30240;47.418;0.700;2023-05-01T01:50:21;100557.31811523438;;;11.41;92.23
44531;BME280;30240;47.418;0.700;2023-05-01T01:52:46;100557.31811523438;;;11.41;92.23
44531;BME280;30240;47.418;0.700;2023-05-01T01:55:10;100558.88061523438;;;11.44;92.23
44531;BME280;30240;47.418;0.700;2023-05-01T01:57:35;100556.65893554688;;;11.35;92.39
44531;BME280;30240;47.418;0.700;2023-05-01T01:59:58;100560.0341796875;;;11.42;92.5
44531;BME280;30240;47.418;0.700;2023-05-01T02:02:24;100566.796875;;;11.42;92.86
44531;BME280;30240;47.418;0.700;2023-05-01T02:04:50;100564.306640625;;;11.3;93.17
44531;BME280;30240;47.418;0.700;2023-05-01T02:07:15;100564.306640625;;;11.3;93.17
44531;BME280;30240;47.418;0.700;2023-05-01T02:09:39;100570.8251953125;;;11.2;93.47
44531;BME280;30240;47.418;0.700;2023-05-01T02:12:04;100570.03784179688;;;11.17;93.66
44531;BME280;30240;47.418;0.700;2023-05-01T02:14:29;100563.14086914062;;;11.15;93.94
44531;BME280;30240;47.418;0.700;2023-05-01T02:16:54;100561.9384765625;;;11.17;94.15
44531;BME280;30240;47.418;0.700;2023-05-01T02:19:19;100561.9384765625;;;11.17;94.15
44531;BME280;30240;47.418;0.700;2023-05-01T02:21:44;100565.42358398438;;;11.34;94.24
44531;BME280;30240;47.418;0.700;2023-05-01T02:24:09;100567.41943359375;;;11.13;94.32
44531;BME280;30240;47.418;0.700;2023-05-01T02:26:38;100571.18530273438;;;11.28;94.39
44531;BME280;30240;47.418;0.700;2023-05-01T02:28:58;100576.3427734375;;;11.31;94.5
44531;BME280;30240;47.418;0.700;2023-05-01T02:31:23;100576.3427734375;;;11.31;94.5
44531;BME280;30240;47.418;0.700;2023-05-01T02:33:52;100571.84448242188;;;11.4;94.55
44531;BME280;30240;47.418;0.700;2023-05-01T02:36:14;100570.59326171875;;;11.44;94.63
44531;BME280;30240;47.418;0.700;2023-05-01T02:38:38;100577.93579101562;;;11.44;94.68
44531;BME280;30240;47.418;0.700;2023-05-01T02:41:05;100572.69287109375;;;11.44;94.71
44531;BME280;30240;47.418;0.700;2023-05-01T02:43:31;100572.69287109375;;;11.44;94.71
44531;BME280;30240;47.418;0.700;2023-05-01T02:45:54;100582.58056640625;;;11.42;94.72
44531;BME280;30240;47.418;0.700;2023-05-01T02:48:21;100578.59497070312;;;11.47;94.74
44531;BME280;30240;47.418;0.700;2023-05-01T02:50:44;100571.9482421875;;;11.35;94.72
44531;BME280;30240;47.418;0.700;2023-05-01T02:53:09;100574.57885742188;;;11.42;94.73
44531;BME280;30240;47.418;0.700;2023-05-01T02:55:34;100574.57885742188;;;11.42;94.73
44531;BME280;30240;47.418;0.700;2023-05-01T02:57:59;100575.2197265625;;;11.48;94.67
44531;BME280;30240;47.418;0.700;2023-05-01T03:00:24;100566.81518554688;;;11.52;94.66
44531;BME280;30240;47.418;0.700;2023-05-01T03:02:48;100565.54565429688;;;11.41;94.54
44531;BME280;30240;47.418;0.700;2023-05-01T03:05:14;100574.98168945312;;;11.41;94.47
44531;BME280;30240;47.418;0.700;2023-05-01T03:07:39;100574.98168945312;;;11.41;94.47
44531;BME280;30240;47.418;0.700;2023-05-01T03:10:04;100573.34594726562;;;11.47;94.44
44531;BME280;30240;47.418;0.700;2023-05-01T03:12:29;100571.89331054688;;;11.38;94.26
44531;BME280;30240;47.418;0.700;2023-05-01T03:14:54;100576.09252929688;;;11.35;94.11
44531;BME280;30240;47.418;0.700;2023-05-01T03:17:19;100579.541015625;;;11.45;93.99
44531;BME280;30240;47.418;0.700;2023-05-01T03:19:44;100579.541015625;;;11.45;93.99
44531;BME280;30240;47.418;0.700;2023-05-01T03:22:09;100584.35668945312;;;11.55;93.86
44531;BME280;30240;47.418;0.700;2023-05-01T03:24:33;100585.09521484375;;;11.55;93.75
44531;BME280;30240;47.418;0.700;2023-05-01T03:26:58;100580.40771484375;;;11.64;93.63
44531;BME280;30240;47.418;0.700;2023-05-01T03:29:23;100582.14111328125;;;11.71;93.5
44531;BME280;30240;47.418;0.700;2023-05-01T03:31:48;100585.23559570312;;;11.62;93.39
44531;BME280;30240;47.418;0.700;2023-05-01T03:34:13;100585.23559570312;;;11.62;93.39
44531;BME280;30240;47.418;0.700;2023-05-01T03:36:38;100583.251953125;;;11.58;93.2
44531;BME280;30240;47.418;0.700;2023-05-01T03:39:04;100584.27124023438;;;11.58;92.98
44531;BME280;30240;47.418;0.700;2023-05-01T03:41:28;100583.73413085938;;;11.71;92.86
44531;BME280;30240;47.418;0.700;2023-05-01T03:43:53;100579.736328125;;;11.78;92.71
44531;BME280;30240;47.418;0.700;2023-05-01T03:46:18;100579.736328125;;;11.78;92.71
44531;BME280;30240;47.418;0.700;2023-05-01T03:48:43;100581.34155273438;;;11.71;92.49
44531;BME280;30240;47.418;0.700;2023-05-01T03:51:08;100583.4228515625;;;11.79;92.26
44531;BME280;30240;47.418;0.700;2023-05-01T03:53:33;100588.8671875;;;11.82;92.1
44531;BME280;30240;47.418;0.700;2023-05-01T03:55:58;100589.64233398438;;;11.87;91.85
44531;BME280;30240;47.418;0.700;2023-05-01T03:58:23;100589.64233398438;;;11.87;91.85
44531;BME280;30240;47.418;0.700;2023-05-01T04:00:49;100582.11059570312;;;11.85;91.65
44531;BME280;30240;47.418;0.700;2023-05-01T04:03:13;100586.2060546875;;;11.83;91.47
44531;BME280;30240;47.418;0.700;2023-05-01T04:05:39;100587.07275390625;;;11.94;91.15
44531;BME280;30240;47.418;0.700;2023-05-01T04:08:04;100589.31274414062;;;11.97;91.07
44531;BME280;30240;47.418;0.700;2023-05-01T04:10:28;100589.31274414062;;;11.97;91.07
44531;BME280;30240;47.418;0.700;2023-05-01T04:12:53;100595.51391601562;;;11.9;91.06
44531;BME280;30240;47.418;0.700;2023-05-01T04:15:18;100596.826171875;;;12.06;90.96
44531;BME280;30240;47.418;0.700;2023-05-01T04:17:44;100597.18627929688;;;12.04;90.95
44531;BME280;30240;47.418;0.700;2023-05-01T04:20:09;100596.88110351562;;;12.18;90.89
44531;BME280;30240;47.418;0.700;2023-05-01T04:22:34;100596.88110351562;;;12.18;90.89
44531;BME280;30240;47.418;0.700;2023-05-01T04:24:58;100600.22583007812;;;12.06;90.88
44531;BME280;30240;47.418;0.700;2023-05-01T04:27:24;100601.50146484375;;;11.92;90.74
44531;BME280;30240;47.418;0.700;2023-05-01T04:29:48;100606.54907226562;;;12.03;90.52
44531;BME280;30240;47.418;0.700;2023-05-01T04:32:13;100605.88989257812;;;12.07;90.57
44531;BME280;30240;47.418;0.700;2023-05-01T04:34:38;100605.88989257812;;;12.07;90.57
44531;BME280;30240;47.418;0.700;2023-05-01T04:37:03;100601.48315429688;;;11.94;90.55
44531;BME280;30240;47.418;0.700;2023-05-01T04:39:28;100609.1552734375;;;11.92;90.04
44531;BME280;30240;47.418;0.700;2023-05-01T04:41:53;100615.7958984375;;;11.99;89.71
44531;BME280;30240;47.418;0.700;2023-05-01T04:44:19;100619.43969726562;;;11.96;89.52
44531;BME280;30240;47.418;0.700;2023-05-01T04:46:43;100619.43969726562;;;11.96;89.52
44531;BME280;30240;47.418;0.700;2023-05-01T04:49:08;100617.578125;;;11.86;89.67
44531;BME280;30240;47.418;0.700;2023-05-01T04:51:34;100618.7744140625;;;12.13;89.84
44531;BME280;30240;47.418;0.700;2023-05-01T04:53:59;100618.93920898438;;;12.1;89.75
44531;BME280;30240;47.418;0.700;2023-05-01T04:56:24;100623.2177734375;;;12.03;90.06
44531;BME280;30240;47.418;0.700;2023-05-01T04:58:48;100623.2177734375;;;12.03;90.06
44531;BME280;30240;47.418;0.700;2023-05-01T05:01:13;100626.611328125;;;12.03;90.13
44531;BME280;30240;47.418;0.700;2023-05-01T05:03:38;100627.8564453125;;;12.07;89.91
44531;BME280;30240;47.418;0.700;2023-05-01T05:06:03;100628.40576171875;;;12.1;90.1
44531;BME280;30240;47.418;0.700;2023-05-01T05:08:28;100629.35791015625;;;12.0;90.59
44531;BME280;30240;47.418;0.700;2023-05-01T05:10:55;100629.80346679688;;;12.07;91.23
44531;BME280;30240;47.418;0.700;2023-05-01T05:13:18;100629.80346679688;;;12.07;91.23
44531;BME280;30240;47.418;0.700;2023-05-01T05:15:43;100636.87744140625;;;11.76;91.73
44531;BME280;30240;47.418;0.700;2023-05-01T05:18:08;100636.865234375;;;11.75;92.32
44531;BME280;30240;47.418;0.700;2023-05-01T05:20:36;100640.22827148438;;;11.57;92.67
44531;BME280;30240;47.418;0.700;2023-05-01T05:22:59;100646.0205078125;;;11.66;92.81
44531;BME280;30240;47.418;0.700;2023-05-01T05:25:23;100646.0205078125;;;11.66;92.81
44531;BME280;30240;47.418;0.700;2023-05-01T05:27:48;100645.81298828125;;;11.62;92.84
44531;BME280;30240;47.418;0.700;2023-05-01T05:30:14;100644.22607421875;;;11.59;92.92
44531;BME280;30240;47.418;0.700;2023-05-01T05:32:38;100646.6796875;;;11.57;92.96
44531;BME280;30240;47.418;0.700;2023-05-01T05:35:04;100647.63793945312;;;11.55;93.04
44531;BME280;30240;47.418;0.700;2023-05-01T05:37:28;100647.63793945312;;;11.55;93.04
44531;BME280;30240;47.418;0.700;2023-05-01T05:39:54;100651.93481445312;;;11.5;92.96
44531;BME280;30240;47.418;0.700;2023-05-01T05:42:18;100656.8603515625;;;11.51;93.14
44531;BME280;30240;47.418;0.700;2023-05-01T05:44:43;100652.37426757812;;;11.44;93.02
44531;BME280;30240;47.418;0.700;2023-05-01T05:47:09;100653.41186523438;;;11.44;93.14
44531;BME280;30240;47.418;0.700;2023-05-01T05:49:33;100653.41186523438;;;11.44;93.14
44531;BME280;30240;47.418;0.700;2023-05-01T05:51:58;100653.60717773438;;;11.55;93.24
44531;BME280;30240;47.418;0.700;2023-05-01T05:54:23;100652.734375;;;11.55;93.24
44531;BME280;30240;47.418;0.700;2023-05-01T05:56:48;100654.58374023438;;;11.41;93.3
44531;BME280;30240;47.418;0.700;2023-05-01T05:59:14;100659.84497070312;;;11.58;93.34
44531;BME280;30240;47.418;0.700;2023-05-01T06:01:38;100659.84497070312;;;11.58;93.34
44531;BME280;30240;47.418;0.700;2023-05-01T06:04:03;100663.00659179688;;;11.62;93.32
44531;BME280;30240;47.418;0.700;2023-05-01T06:06:28;100661.83471679688;;;11.44;93.21
44531;BME280;30240;47.418;0.700;2023-05-01T06:08:53;100666.95556640625;;;11.41;93.47
44531;BME280;30240;47.418;0.700;2023-05-01T06:11:18;100667.34619140625;;;11.55;93.62
44531;BME280;30240;47.418;0.700;2023-05-01T06:13:43;100667.34619140625;;;11.55;93.62
44531;BME280;30240;47.418;0.700;2023-05-01T06:16:08;100666.259765625;;;11.57;93.56
44531;BME280;30240;47.418;0.700;2023-05-01T06:18:34;100664.1845703125;;;11.48;93.26
44531;BME280;30240;47.418;0.700;2023-05-01T06:20:58;100666.56494140625;;;11.52;93.09
44531;BME280;30240;47.418;0.700;2023-05-01T06:23:23;100671.07543945312;;;11.45;93.03
44531;BME280;30240;47.418;0.700;2023-05-01T06:25:48;100671.07543945312;;;11.45;93.03
44531;BME280;30240;47.418;0.700;2023-05-01T06:28:13;100672.56469726562;;;11.4;92.99
44531;BME280;30240;47.418;0.700;2023-05-01T06:30:38;100683.50830078125;;;11.38;93.0
44531;BME280;30240;47.418;0.700;2023-05-01T06:33:04;100682.90405273438;;;11.27;93.13
44531;BME280;30240;47.418;0.700;2023-05-01T06:35:28;100681.39038085938;;;11.24;93.29
44531;BME280;30240;47.418;0.700;2023-05-01T06:37:53;100685.24780273438;;;11.3;93.29
44531;BME280;30240;47.418;0.700;2023-05-01T06:40:18;100685.24780273438;;;11.3;93.29
44531;BME280;30240;47.418;0.700;2023-05-01T06:42:43;100681.39038085938;;;11.37;93.37
44531;BME280;30240;47.418;0.700;2023-05-01T06:45:09;100680.3466796875;;;11.23;93.27
44531;BME280;30240;47.418;0.700;2023-05-01T06:47:34;100685.77880859375;;;11.27;93.28
44531;BME280;30240;47.418;0.700;2023-05-01T06:49:58;100684.31396484375;;;11.31;93.41
44531;BME280;30240;47.418;0.700;2023-05-01T06:52:24;100684.31396484375;;;11.31;93.41
44531;BME280;30240;47.418;0.700;2023-05-01T06:54:48;100688.90380859375;;;11.28;93.46
44531;BME280;30240;47.418;0.700;2023-05-01T06:57:13;100689.6484375;;;11.48;93.4
44531;BME280;30240;47.418;0.700;2023-05-01T06:59:39;100692.333984375;;;11.3;93.27
44531;BME280;30240;47.418;0.700;2023-05-01T07:02:04;100691.796875;;;11.34;93.09
44531;BME280;30240;47.418;0.700;2023-05-01T07:04:30;100691.796875;;;11.34;93.09
44531;BME280;30240;47.418;0.700;2023-05-01T07:06:53;100696.76513671875;;;11.28;92.89
44531;BME280;30240;47.418;0.700;2023-05-01T07:09:19;100697.90649414062;;;11.2;92.69
44531;BME280;30240;47.418;0.700;2023-05-01T07:11:44;100706.0302734375;;;11.28;92.55
44531;BME280;30240;47.418;0.700;2023-05-01T07:14:08;100701.03149414062;;;11.26;92.48
44531;BME280;30240;47.418;0.700;2023-05-01T07:16:33;100701.03149414062;;;11.26;92.48
44531;BME280;30240;47.418;0.700;2023-05-01T07:18:58;100720.23315429688;;;11.5;92.32
44531;BME280;30240;47.418;0.700;2023-05-01T07:21:23;100714.82543945312;;;11.59;92.25
44531;BME280;30240;47.418;0.700;2023-05-01T07:23:48;100714.2578125;;;11.38;91.86
44531;BME280;30240;47.418;0.700;2023-05-01T07:26:13;100712.98217773438;;;11.41;91.59
44531;BME280;30240;47.418;0.700;2023-05-01T07:28:39;100712.98217773438;;;11.41;91.59
44531;BME280;30240;47.418;0.700;2023-05-01T07:31:04;100716.650390625;;;11.58;91.28
44531;BME280;30240;47.418;0.700;2023-05-01T07:33:28;100717.38891601562;;;11.69;90.87
44531;BME280;30240;47.418;0.700;2023-05-01T07:35:53;100722.509765625;;;11.71;89.91
44531;BME280;30240;47.418;0.700;2023-05-01T07:38:18;100730.82275390625;;;12.23;89.9
44531;BME280;30240;47.418;0.700;2023-05-01T07:40:43;100730.82275390625;;;12.23;89.9
44531;BME280;30240;47.418;0.700;2023-05-01T07:43:08;100732.18994140625;;;11.62;88.81
44531;BME280;30240;47.418;0.700;2023-05-01T07:45:33;100728.06396484375;;;11.92;88.71
44531;BME280;30240;47.418;0.700;2023-05-01T07:47:58;100738.83056640625;;;11.75;87.82
44531;BME280;30240;47.418;0.700;2023-05-01T07:50:23;100732.5927734375;;;11.93;87.33
44531;BME280;30240;47.418;0.700;2023-05-01T07:52:49;100732.5927734375;;;11.93;87.33
44531;BME280;30240;47.418;0.700;2023-05-01T07:55:13;100721.12426757812;;;11.94;86.97
44531;BME280;30240;47.418;0.700;2023-05-01T07:57:38;100731.77490234375;;;12.27;85.94
44531;BME280;30240;47.418;0.700;2023-05-01T08:00:04;100733.56323242188;;;12.62;85.51
44531;BME280;30240;47.418;0.700;2023-05-01T08:02:28;100722.39990234375;;;12.49;84.64
44531;BME280;30240;47.418;0.700;2023-05-01T08:04:53;100722.39990234375;;;12.49;84.64
44531;BME280;30240;47.418;0.700;2023-05-01T08:07:19;100713.36059570312;;;12.7;84.25
44531;BME280;30240;47.418;0.700;2023-05-01T08:09:45;100705.05981445312;;;12.77;84.07
44531;BME280;30240;47.418;0.700;2023-05-01T08:12:08;100704.13818359375;;;13.19;84.57
44531;BME280;30240;47.418;0.700;2023-05-01T08:14:33;100693.37768554688;;;13.03;84.53
44531;BME280;30240;47.418;0.700;2023-05-01T08:16:59;100697.96752929688;;;12.93;84.23
44531;BME280;30240;47.418;0.700;2023-05-01T08:19:24;100697.96752929688;;;12.93;84.23
44531;BME280;30240;47.418;0.700;2023-05-01T08:21:48;100675.06103515625;;;13.0;84.08
44531;BME280;30240;47.418;0.700;2023-05-01T08:24:14;100671.39282226562;;;13.56;83.91
44531;BME280;30240;47.418;0.700;2023-05-01T08:26:39;100683.59375;;;13.34;83.55
44531;BME280;30240;47.418;0.700;2023-05-01T08:29:03;100675.93994140625;;;13.81;83.08
44531;BME280;30240;47.418;0.700;2023-05-01T08:31:28;100675.93994140625;;;13.81;83.08
44531;BME280;30240;47.418;0.700;2023-05-01T08:33:54;100668.44482421875;;;13.76;82.29
44531;BME280;30240;47.418;0.700;2023-05-01T08:36:19;100664.70336914062;;;14.01;82.43
44531;BME280;30240;47.418;0.700;2023-05-01T08:38:43;100650.23193359375;;;14.12;80.0
44531;BME280;30240;47.418;0.700;2023-05-01T08:41:09;100620.40405273438;;;13.8;81.52
44531;BME280;30240;47.418;0.700;2023-05-01T08:43:33;100620.40405273438;;;13.8;81.52
44531;BME280;30240;47.418;0.700;2023-05-01T08:45:59;100629.35791015625;;;14.33;79.64
44531;BME280;30240;47.418;0.700;2023-05-01T08:48:24;100608.28247070312;;;14.92;78.54
44531;BME280;30240;47.418;0.700;2023-05-01T08:50:49;100624.78637695312;;;15.91;76.5
44531;BME280;30240;47.418;0.700;2023-05-01T08:53:15;100678.18603515625;;;15.96;77.55
44531;BME280;30240;47.418;0.700;2023-05-01T08:55:39;100678.18603515625;;;15.96;77.55
44531;BME280;30240;47.418;0.700;2023-05-01T08:58:06;100685.38208007812;;;17.02;74.08
44531;BME280;30240;47.418;0.700;2023-05-01T09:00:29;100696.03881835938;;;15.64;77.33
44531;BME280;30240;47.418;0.700;2023-05-01T09:02:53;100690.63110351562;;;16.71;74.04
44531;BME280;30240;47.418;0.700;2023-05-01T09:05:19;100689.09301757812;;;17.09;74.04
44531;BME280;30240;47.418;0.700;2023-05-01T09:07:44;100689.09301757812;;;17.09;74.04
44531;BME280;30240;47.418;0.700;2023-05-01T09:10:10;100691.46728515625;;;15.82;74.92
44531;BME280;30240;47.418;0.700;2023-05-01T09:12:34;100691.46728515625;;;15.51;76.88
44531;BME280;30240;47.418;0.700;2023-05-01T09:14:58;100701.45874023438;;;17.24;73.66
44531;BME280;30240;47.418;0.700;2023-05-01T09:17:27;100696.17919921875;;;18.74;67.72
44531;BME280;30240;47.418;0.700;2023-05-01T09:19:53;100696.17919921875;;;18.74;67.72
44531;BME280;30240;47.418;0.700;2023-05-01T09:22:18;100706.56127929688;;;15.22;75.27
44531;BME280;30240;47.418;0.700;2023-05-01T09:24:45;100700.32958984375;;;14.55;78.46
44531;BME280;30240;47.418;0.700;2023-05-01T09:27:12;100715.0390625;;;14.5;77.87
44531;BME280;30240;47.418;0.700;2023-05-01T09:29:39;100719.51293945312;;;14.55;78.29
44531;BME280;30240;47.418;0.700;2023-05-01T09:34:23;100733.68530273438;;;14.78;77.05
44531;BME280;30240;47.418;0.700;2023-05-01T09:36:44;100720.41625976562;;;14.59;77.27
44531;BME280;30240;47.418;0.700;2023-05-01T09:39:21;100733.65478515625;;;14.92;77.56
44531;BME280;30240;47.418;0.700;2023-05-01T09:41:52;100736.35864257812;;;14.61;77.23
44531;BME280;30240;47.418;0.700;2023-05-01T09:44:02;100724.7802734375;;;14.37;76.73
44531;BME280;30240;47.418;0.700;2023-05-01T09:46:26;100724.7802734375;;;14.37;76.73
44531;BME280;30240;47.418;0.700;2023-05-01T09:48:52;100730.88989257812;;;14.77;77.18
44531;BME280;30240;47.418;0.700;2023-05-01T09:51:19;100743.17016601562;;;16.13;73.91
44531;BME280;30240;47.418;0.700;2023-05-01T09:53:39;100727.50854492188;;;15.37;75.15
44531;BME280;30240;47.418;0.700;2023-05-01T09:56:04;100704.6630859375;;;16.71;71.55
44531;BME280;30240;47.418;0.700;2023-05-01T09:58:28;100704.6630859375;;;16.71;71.55
44531;BME280;30240;47.418;0.700;2023-05-01T10:00:53;100711.52954101562;;;16.17;71.89
44531;BME280;30240;47.418;0.700;2023-05-01T10:03:18;100720.54443359375;;;16.96;71.87
44531;BME280;30240;47.418;0.700;2023-05-01T10:05:44;100718.310546875;;;16.08;73.9
44531;BME280;30240;47.418;0.700;2023-05-01T10:08:08;100726.7822265625;;;15.51;74.54
44531;BME280;30240;47.418;0.700;2023-05-01T10:10:34;100726.7822265625;;;15.51;74.54
44531;BME280;30240;47.418;0.700;2023-05-01T10:13:12;100738.28125;;;15.32;76.3
44531;BME280;30240;47.418;0.700;2023-05-01T10:15:35;100740.93627929688;;;15.19;76.53
44531;BME280;30240;47.418;0.700;2023-05-01T10:17:49;100739.65454101562;;;15.71;75.49
44531;BME280;30240;47.418;0.700;2023-05-01T10:20:13;100729.21752929688;;;15.39;75.38
44531;BME280;30240;47.418;0.700;2023-05-01T10:22:39;100729.21752929688;;;15.39;75.38
44531;BME280;30240;47.418;0.700;2023-05-01T10:25:06;100729.91333007812;;;15.34;75.48
44531;BME280;30240;47.418;0.700;2023-05-01T10:27:29;100718.67065429688;;;15.33;73.61
44531;BME280;30240;47.418;0.700;2023-05-01T10:29:53;100733.80737304688;;;15.98;71.98
44531;BME280;30240;47.418;0.700;2023-05-01T10:32:19;100717.76733398438;;;15.37;73.65
44531;BME280;30240;47.418;0.700;2023-05-01T10:34:52;100717.76733398438;;;15.37;73.65
44531;BME280;30240;47.418;0.700;2023-05-01T10:37:12;100732.33032226562;;;15.62;73.53
44531;BME280;30240;47.418;0.700;2023-05-01T10:39:35;100721.533203125;;;14.94;75.79
44531;BME280;30240;47.418;0.700;2023-05-01T10:41:59;100726.87377929688;;;15.86;73.93
44531;BME280;30240;47.418;0.700;2023-05-01T10:44:25;100732.83081054688;;;15.78;71.82
44531;BME280;30240;47.418;0.700;2023-05-01T10:46:48;100732.83081054688;;;15.78;71.82
44531;BME280;30240;47.418;0.700;2023-05-01T10:49:13;100738.07983398438;;;16.01;72.43
44531;BME280;30240;47.418;0.700;2023-05-01T10:51:58;100722.265625;;;16.24;73.5
44531;BME280;30240;47.418;0.700;2023-05-01T10:54:22;100712.109375;;;16.31;72.83
44531;BME280;30240;47.418;0.700;2023-05-01T10:56:40;100706.298828125;;;16.41;71.35
44531;BME280;30240;47.418;0.700;2023-05-01T10:58:56;100706.298828125;;;16.41;71.35
44531;BME280;30240;47.418;0.700;2023-05-01T11:01:27;100699.24926757812;;;17.68;67.95
44531;BME280;30240;47.418;0.700;2023-05-01T11:03:43;100700.4638671875;;;18.18;68.52
44531;BME280;30240;47.418;0.700;2023-05-01T11:06:08;100704.13818359375;;;17.62;66.28
44531;BME280;30240;47.418;0.700;2023-05-01T11:08:35;100687.39013671875;;;18.78;64.85
44531;BME280;30240;47.418;0.700;2023-05-01T11:11:47;100689.20288085938;;;18.48;65.66
44531;BME280;30240;47.418;0.700;2023-05-01T11:13:55;100689.20288085938;;;18.48;65.66